createdAt,value
2018-09-15T00:03:16.964Z,3.13
2018-09-15T00:08:10.266Z,3.50
2018-09-15T00:13:03.662Z,3.27
2018-09-15T00:17:58.031Z,3.00
2018-09-15T00:22:51.284Z,3.12
2018-09-15T00:27:44.567Z,3.60
2018-09-15T00:32:37.805Z,3.30
2018-09-15T00:37:31.072Z,3.50
2018-09-15T00:42:24.352Z,3.75
2018-09-15T00:47:17.939Z,3.08
2018-09-15T00:52:11.752Z,2.90
2018-09-15T00:57:05.084Z,2.98
2018-09-15T01:01:58.340Z,3.47
2018-09-15T01:06:51.625Z,2.92
2018-09-15T01:11:44.917Z,2.67
2018-09-15T01:16:38.887Z,2.72
2018-09-15T01:21:32.139Z,2.52
2018-09-15T01:26:25.418Z,2.30
2018-09-15T01:31:21.794Z,2.35
2018-09-15T01:36:15.057Z,2.40
2018-09-15T01:41:09.259Z,2.02
2018-09-15T01:46:03.113Z,2.45
2018-09-15T01:50:56.357Z,2.52
2018-09-15T01:55:49.747Z,2.20
2018-09-15T02:00:42.997Z,2.10
2018-09-15T02:05:36.195Z,2.20
2018-09-15T02:10:29.462Z,2.47
2018-09-15T02:15:22.691Z,2.20
2018-09-15T02:20:15.950Z,2.10
2018-09-15T02:25:12.061Z,2.70
2018-09-15T02:30:05.453Z,2.37
2018-09-15T02:34:58.773Z,2.10
2018-09-15T02:39:52.675Z,1.80
2018-09-15T02:44:45.927Z,1.95
2018-09-15T02:49:39.158Z,2.30
2018-09-15T02:54:32.430Z,2.60
2018-09-15T02:59:26.091Z,2.02
2018-09-15T03:04:19.648Z,2.02
2018-09-15T03:09:13.668Z,1.75
2018-09-15T03:14:06.947Z,2.42
2018-09-15T03:19:00.212Z,2.10
2018-09-15T03:23:53.441Z,2.60
2018-09-15T03:28:46.942Z,2.12
2018-09-15T03:33:40.992Z,2.25
2018-09-15T03:38:34.235Z,2.10
2018-09-15T03:43:27.472Z,2.10
2018-09-15T03:48:20.722Z,2.20
2018-09-15T03:53:13.955Z,2.37
2018-09-15T03:58:07.202Z,1.85
2018-09-15T04:03:00.453Z,2.25
2018-09-15T04:07:53.729Z,2.15
2018-09-15T04:12:47.029Z,2.20
2018-09-15T04:17:40.370Z,2.10
2018-09-15T04:22:33.611Z,2.10
2018-09-15T04:27:26.866Z,2.37
2018-09-15T04:32:20.071Z,1.98
2018-09-15T04:37:13.304Z,2.22
2018-09-15T04:42:06.581Z,2.20
2018-09-15T04:46:59.832Z,2.20
2018-09-15T04:51:53.140Z,1.72
2018-09-15T04:56:46.488Z,1.87
2018-09-15T05:01:39.718Z,1.92
2018-09-15T05:06:33.024Z,1.92
2018-09-15T05:11:26.274Z,1.87
2018-09-15T05:16:19.529Z,2.30
2018-09-15T05:21:12.768Z,2.40
2018-09-15T05:26:06.054Z,2.37
2018-09-15T05:30:59.544Z,3.25
2018-09-15T05:35:52.749Z,2.85
2018-09-15T05:40:45.986Z,2.70
2018-09-15T05:45:39.266Z,2.95
2018-09-15T05:50:32.514Z,3.60
2018-09-15T05:55:25.730Z,4.08
2018-09-15T06:00:19.128Z,4.25
2018-09-15T06:05:13.021Z,4.00
2018-09-15T06:10:06.338Z,3.65
2018-09-15T06:14:59.592Z,4.35
2018-09-15T06:19:52.849Z,3.80
2018-09-15T06:24:46.094Z,3.52
2018-09-15T06:29:39.327Z,3.95
2018-09-15T06:34:32.659Z,3.67
2018-09-15T06:39:25.925Z,3.58
2018-09-15T06:44:19.154Z,3.42
2018-09-15T06:49:12.417Z,3.12
2018-09-15T06:54:05.667Z,2.95
2018-09-15T06:58:58.964Z,2.50
2018-09-15T07:03:52.213Z,2.20
2018-09-15T07:08:45.621Z,2.55
2018-09-15T07:13:38.864Z,2.50
2018-09-15T07:18:32.127Z,2.50
2018-09-15T07:23:25.393Z,2.87
2018-09-15T07:28:18.698Z,2.83
2018-09-15T07:33:12.943Z,2.25
2018-09-15T07:38:06.291Z,2.65
2018-09-15T07:43:00.127Z,2.80
2018-09-15T07:47:53.382Z,3.08
2018-09-15T07:52:46.653Z,2.90
2018-09-15T07:57:40.170Z,3.30
2018-09-15T08:02:33.328Z,2.47
2018-09-15T08:07:26.589Z,3.10
2018-09-15T08:12:20.093Z,2.62
2018-09-15T08:17:13.407Z,2.20
2018-09-15T08:22:06.657Z,1.90
2018-09-15T08:27:00.238Z,2.00
2018-09-15T08:31:53.528Z,2.55
2018-09-15T08:36:46.816Z,2.50
2018-09-15T08:41:40.338Z,2.92
2018-09-15T08:46:33.852Z,2.58
2018-09-15T08:51:27.113Z,1.70
2018-09-15T08:56:21.095Z,2.10
2018-09-15T09:01:14.338Z,2.20
2018-09-15T09:06:07.617Z,2.02
2018-09-15T09:11:00.845Z,2.17
2018-09-15T09:15:54.154Z,2.35
2018-09-15T09:20:47.479Z,2.33
2018-09-15T09:25:40.742Z,2.05
2018-09-15T09:30:34.271Z,2.25
2018-09-15T09:35:27.492Z,1.77
2018-09-15T09:40:21.593Z,1.67
2018-09-15T09:45:14.821Z,2.27
2018-09-15T09:50:08.098Z,2.08
2018-09-15T09:55:01.414Z,1.80
2018-09-15T09:59:54.707Z,1.90
2018-09-15T10:04:48.032Z,1.87
2018-09-15T10:09:41.284Z,2.00
2018-09-15T10:14:34.528Z,2.37
2018-09-15T10:19:27.773Z,2.00
2018-09-15T10:24:21.075Z,1.77
2018-09-15T10:29:14.421Z,1.87
2018-09-15T10:34:07.711Z,2.70
2018-09-15T10:39:01.009Z,1.77
2018-09-15T10:43:54.255Z,1.85
2018-09-15T10:48:47.565Z,2.20
2018-09-15T10:53:41.791Z,1.92
2018-09-15T10:58:35.021Z,1.72
2018-09-15T11:03:28.249Z,1.72
2018-09-15T11:08:21.491Z,1.55
2018-09-15T11:13:14.780Z,1.85
2018-09-15T11:18:08.053Z,2.12
2018-09-15T11:23:01.328Z,1.30
2018-09-15T11:27:54.779Z,1.50
2018-09-15T11:32:48.145Z,1.67
2018-09-15T11:37:41.495Z,1.50
2018-09-15T11:42:34.900Z,1.52
2018-09-15T11:47:28.258Z,1.62
2018-09-15T11:52:21.483Z,1.77
2018-09-15T11:57:14.868Z,1.50
2018-09-15T12:02:08.523Z,1.40
2018-09-15T12:07:01.752Z,1.60
2018-09-15T12:11:55.007Z,1.50
2018-09-15T12:16:48.260Z,1.17
2018-09-15T12:21:41.700Z,1.90
2018-09-15T12:26:34.926Z,1.80
2018-09-15T12:31:28.168Z,2.45
2018-09-15T12:36:21.462Z,1.50
2018-09-15T12:41:14.741Z,1.62
2018-09-15T12:46:08.026Z,1.10
2018-09-15T12:51:01.272Z,1.50
2018-09-15T12:55:54.505Z,1.47
2018-09-15T13:00:47.819Z,1.62
2018-09-15T13:05:41.116Z,1.30
2018-09-15T13:10:34.355Z,1.50
2018-09-15T13:15:28.593Z,1.60
2018-09-15T13:20:22.530Z,1.30
2018-09-15T13:25:15.819Z,1.35
2018-09-15T13:30:09.352Z,1.60
2018-09-15T13:35:02.598Z,1.27
2018-09-15T13:39:55.846Z,1.30
2018-09-15T13:44:49.117Z,1.10
2018-09-15T13:49:42.405Z,1.40
2018-09-15T13:54:35.640Z,1.27
2018-09-15T13:59:28.965Z,1.10
2018-09-15T14:04:22.341Z,1.32
2018-09-15T14:09:15.524Z,1.65
2018-09-15T14:14:08.780Z,1.12
2018-09-15T14:19:02.083Z,1.57
2018-09-15T14:23:55.368Z,1.62
2018-09-15T14:28:48.670Z,2.47
2018-09-15T14:33:42.045Z,1.50
2018-09-15T14:38:35.368Z,1.52
2018-09-15T14:43:28.719Z,1.55
2018-09-15T14:48:21.987Z,1.45
2018-09-15T14:53:15.245Z,1.00
2018-09-15T14:58:08.840Z,1.42
2018-09-15T15:03:04.267Z,2.35
2018-09-15T15:07:57.653Z,1.80
2018-09-15T15:12:51.061Z,1.40
2018-09-15T15:17:44.292Z,2.02
2018-09-15T15:22:37.848Z,1.42
2018-09-15T15:27:31.118Z,1.95
2018-09-15T15:32:24.452Z,1.65
2018-09-15T15:37:17.681Z,1.27
2018-09-15T15:42:10.933Z,1.00
2018-09-15T15:47:04.223Z,1.10
2018-09-15T15:51:57.558Z,1.70
2018-09-15T15:56:50.861Z,1.22
2018-09-15T16:01:44.136Z,0.93
2018-09-15T16:06:37.396Z,0.98
2018-09-15T16:11:30.626Z,1.60
2018-09-15T16:16:23.902Z,1.37
2018-09-15T16:21:17.206Z,1.65
2018-09-15T16:26:10.545Z,1.37
2018-09-15T16:31:03.889Z,2.00
2018-09-15T16:35:57.162Z,1.82
2018-09-15T16:40:50.433Z,1.40
2018-09-15T16:45:43.726Z,1.57
2018-09-15T16:50:36.931Z,2.35
2018-09-15T16:55:30.193Z,2.30
2018-09-15T17:00:23.434Z,1.80
2018-09-15T17:05:16.663Z,1.42
2018-09-15T17:10:09.899Z,2.12
2018-09-15T17:15:03.173Z,2.30
2018-09-15T17:19:56.490Z,2.40
2018-09-15T17:24:49.728Z,2.70
2018-09-15T17:29:42.968Z,2.10
2018-09-15T17:34:36.319Z,2.40
2018-09-15T17:39:29.563Z,2.47
2018-09-15T17:44:22.796Z,3.62
2018-09-15T17:49:16.063Z,3.35
2018-09-15T17:54:09.370Z,4.15
2018-09-15T17:59:02.726Z,5.10
2018-09-15T18:03:55.952Z,7.30
2018-09-15T18:08:49.594Z,8.15
2018-09-15T18:13:42.878Z,5.12
2018-09-15T18:18:36.220Z,4.30
2018-09-15T18:23:29.437Z,3.50
2018-09-15T18:28:22.735Z,4.25
2018-09-15T18:33:15.963Z,4.90
2018-09-15T18:38:09.266Z,4.03
2018-09-15T18:43:02.551Z,5.00
2018-09-15T18:47:56.304Z,4.00
2018-09-15T18:52:49.564Z,5.45
2018-09-15T18:57:42.783Z,4.50
2018-09-15T19:02:36.242Z,5.03
2018-09-15T19:07:29.668Z,4.78
2018-09-15T19:12:22.985Z,5.67
2018-09-15T19:17:16.246Z,7.15
2018-09-15T19:22:09.622Z,8.75
2018-09-15T19:27:02.958Z,6.60
2018-09-15T19:31:56.219Z,4.75
2018-09-15T19:36:49.908Z,5.65
2018-09-15T19:41:43.169Z,6.30
2018-09-15T19:46:37.826Z,7.23
2018-09-15T19:51:31.088Z,9.80
2018-09-15T19:56:24.328Z,9.18
2018-09-15T20:01:17.540Z,8.43
2018-09-15T20:06:11.010Z,6.67
2018-09-15T20:11:04.231Z,6.20
2018-09-15T20:15:55.852Z,5.87
2018-09-15T20:20:47.509Z,5.10
2018-09-15T20:25:41.738Z,4.70
2018-09-15T20:30:34.976Z,4.50
2018-09-15T20:35:28.201Z,6.08
2018-09-15T20:40:21.489Z,5.45
2018-09-15T20:45:14.791Z,5.12
2018-09-15T20:50:08.784Z,4.58
2018-09-15T20:55:02.115Z,5.50
2018-09-15T20:59:55.338Z,5.87
2018-09-15T21:04:49.242Z,6.83
2018-09-15T21:09:42.778Z,7.35
2018-09-15T21:14:36.095Z,6.45
2018-09-15T21:19:29.347Z,6.45
2018-09-15T21:24:22.584Z,5.92
2018-09-15T21:29:15.838Z,5.83
2018-09-15T21:34:09.055Z,5.92
2018-09-15T21:39:02.395Z,5.97
2018-09-15T21:43:55.671Z,5.60
2018-09-15T21:48:48.915Z,6.00
2018-09-15T21:53:42.258Z,6.25
2018-09-15T21:58:35.449Z,6.75
2018-09-15T22:03:28.782Z,6.70
2018-09-15T22:08:22.083Z,7.15
2018-09-15T22:13:15.375Z,6.70
2018-09-15T22:18:08.630Z,6.72
2018-09-15T22:23:01.908Z,5.97
2018-09-15T22:27:55.136Z,5.80
2018-09-15T22:32:48.394Z,5.58
2018-09-15T22:37:41.692Z,6.10
2018-09-15T22:42:34.919Z,6.20
2018-09-15T22:47:28.646Z,7.60
2018-09-15T22:52:21.892Z,6.47
2018-09-15T22:57:15.141Z,6.50
2018-09-15T23:02:08.435Z,6.37
2018-09-15T23:07:02.751Z,6.40
2018-09-15T23:11:56.017Z,5.80
2018-09-15T23:16:49.276Z,5.72
2018-09-15T23:21:42.619Z,5.28
2018-09-15T23:26:35.878Z,4.33
2018-09-15T23:31:29.142Z,4.80
2018-09-15T23:36:22.427Z,4.60
2018-09-15T23:41:15.664Z,4.28
2018-09-15T23:46:09.324Z,4.15
2018-09-15T23:51:02.627Z,4.93
2018-09-15T23:55:55.930Z,4.80
